createdAt,value
2023-05-22T00:01:29.408Z,3.40
2023-05-22T00:03:55.466Z,3.20
2023-05-22T00:06:22.849Z,3.77
2023-05-22T00:08:48.961Z,3.73
2023-05-22T00:11:15.519Z,3.87
2023-05-22T00:13:41.646Z,4.00
2023-05-22T00:16:08.199Z,3.70
2023-05-22T00:18:34.300Z,3.70
2023-05-22T00:21:00.683Z,3.87
2023-05-22T00:23:29.737Z,4.03
2023-05-22T00:25:56.340Z,3.80
2023-05-22T00:28:22.487Z,3.70
2023-05-22T00:30:48.909Z,4.30
2023-05-22T00:33:15.305Z,4.07
2023-05-22T00:35:41.784Z,4.17
2023-05-22T00:38:08.119Z,4.00
2023-05-22T00:40:34.685Z,4.13
2023-05-22T00:43:07.516Z,4.10
2023-05-22T00:45:33.970Z,4.00
2023-05-22T00:48:00.272Z,4.37
2023-05-22T00:50:26.796Z,4.20
2023-05-22T00:52:53.047Z,4.00
2023-05-22T00:55:19.567Z,4.10
2023-05-22T00:57:45.795Z,4.13
2023-05-22T01:00:14.456Z,4.27
2023-05-22T01:02:42.219Z,3.90
2023-05-22T01:05:12.286Z,3.90
2023-05-22T01:07:39.322Z,3.70
2023-05-22T01:10:06.678Z,3.43
2023-05-22T01:12:57.589Z,3.90
2023-05-22T01:15:29.397Z,3.63
2023-05-22T01:18:37.072Z,3.90
2023-05-22T01:21:13.525Z,3.87
2023-05-22T01:24:07.627Z,3.77
2023-05-22T01:26:58.922Z,4.10
2023-05-22T01:30:05.094Z,4.03
2023-05-22T01:32:34.130Z,4.23
2023-05-22T01:35:02.709Z,4.27
2023-05-22T01:37:30.444Z,4.17
2023-05-22T01:39:57.593Z,4.13
2023-05-22T01:42:24.286Z,3.90
2023-05-22T01:44:50.780Z,3.83
2023-05-22T01:47:17.413Z,3.83
2023-05-22T01:49:44.136Z,3.87
2023-05-22T01:52:42.300Z,4.33
2023-05-22T01:55:12.852Z,3.87
2023-05-22T01:57:51.203Z,3.87
2023-05-22T02:00:20.664Z,4.60
2023-05-22T02:03:00.627Z,4.17
2023-05-22T02:05:29.074Z,4.00
2023-05-22T02:08:00.197Z,4.00
2023-05-22T02:10:28.493Z,4.37
2023-05-22T02:12:55.183Z,4.30
2023-05-22T02:15:21.346Z,4.27
2023-05-22T02:17:48.872Z,4.60
2023-05-22T02:20:16.012Z,4.10
2023-05-22T02:22:46.668Z,4.03
2023-05-22T02:25:16.037Z,4.57
2023-05-22T02:27:45.252Z,4.07
2023-05-22T02:30:12.391Z,4.53
2023-05-22T02:32:40.922Z,4.10
2023-05-22T02:35:08.109Z,4.40
2023-05-22T02:37:35.445Z,4.33
2023-05-22T02:40:05.379Z,4.27
2023-05-22T02:42:32.781Z,4.30
2023-05-22T02:45:00.177Z,4.40
2023-05-22T02:47:27.362Z,4.67
2023-05-22T02:49:53.939Z,4.70
2023-05-22T02:52:21.798Z,4.20
2023-05-22T02:54:47.996Z,4.43
2023-05-22T02:57:14.418Z,4.20
2023-05-22T02:59:40.757Z,4.27
2023-05-22T03:02:07.284Z,4.10
2023-05-22T03:04:37.832Z,4.63
2023-05-22T03:07:06.617Z,4.70
2023-05-22T03:09:32.841Z,4.77
2023-05-22T03:11:59.242Z,5.23
2023-05-22T03:14:25.850Z,5.60
2023-05-22T03:16:54.006Z,5.83
2023-05-22T03:19:21.940Z,6.57
2023-05-22T03:21:49.355Z,7.60
2023-05-22T03:24:15.622Z,6.20
2023-05-22T03:26:43.066Z,5.47
2023-05-22T03:29:15.679Z,6.17
2023-05-22T03:31:43.551Z,6.07
2023-05-22T03:34:13.858Z,5.13
2023-05-22T03:36:44.375Z,5.13
2023-05-22T03:39:12.165Z,5.00
2023-05-22T03:41:46.938Z,5.50
2023-05-22T03:44:13.391Z,5.23
2023-05-22T03:46:39.845Z,5.50
2023-05-22T03:49:06.133Z,5.00
2023-05-22T03:51:32.523Z,5.10
2023-05-22T03:53:59.612Z,5.27
2023-05-22T03:56:26.502Z,6.00
2023-05-22T03:58:53.076Z,5.53
2023-05-22T04:01:20.053Z,5.87
2023-05-22T04:03:46.769Z,5.90
2023-05-22T04:06:13.978Z,5.70
2023-05-22T04:08:40.183Z,5.10
2023-05-22T04:11:07.571Z,4.57
2023-05-22T04:13:33.728Z,4.40
2023-05-22T04:16:01.352Z,4.00
2023-05-22T04:18:27.851Z,4.17
2023-05-22T04:20:54.369Z,4.13
2023-05-22T04:23:20.784Z,4.40
2023-05-22T04:25:47.625Z,4.60
2023-05-22T04:28:16.904Z,4.53
2023-05-22T04:30:43.921Z,4.57
2023-05-22T04:33:10.326Z,4.40
2023-05-22T04:35:36.834Z,4.33
2023-05-22T04:38:05.924Z,4.97
2023-05-22T04:40:33.758Z,4.00
2023-05-22T04:43:00.795Z,4.60
2023-05-22T04:45:28.038Z,4.47
2023-05-22T04:47:58.840Z,4.27
2023-05-22T04:50:25.903Z,4.67
2023-05-22T04:52:52.738Z,4.43
2023-05-22T04:55:19.762Z,4.30
2023-05-22T04:57:46.522Z,4.37
2023-05-22T05:00:15.048Z,4.37
2023-05-22T05:02:41.915Z,4.20
2023-05-22T05:05:08.859Z,4.30
2023-05-22T05:07:39.184Z,3.93
2023-05-22T05:10:06.509Z,4.80
2023-05-22T05:12:32.850Z,4.50
2023-05-22T05:15:00.356Z,4.70
2023-05-22T05:17:26.708Z,4.10
2023-05-22T05:19:53.326Z,4.17
2023-05-22T05:22:19.705Z,4.20
2023-05-22T05:24:46.842Z,4.60
2023-05-22T05:27:13.490Z,4.37
2023-05-22T05:29:40.700Z,4.23
2023-05-22T05:32:18.283Z,4.00
2023-05-22T05:35:02.803Z,3.90
2023-05-22T05:37:45.104Z,4.30
2023-05-22T05:40:12.819Z,4.82
2023-05-22T05:42:44.034Z,4.10
2023-05-22T05:45:12.510Z,3.95
2023-05-22T05:47:39.876Z,3.85
2023-05-22T05:50:07.266Z,5.45
2023-05-22T05:52:34.556Z,4.40
2023-05-22T05:55:06.737Z,4.43
2023-05-22T05:57:33.018Z,4.47
2023-05-22T05:59:59.592Z,4.55
2023-05-22T06:02:41.423Z,4.00
2023-05-22T06:05:19.200Z,4.20
2023-05-22T06:07:49.143Z,5.18
2023-05-22T06:10:16.177Z,4.40
2023-05-22T06:13:02.655Z,4.57
2023-05-22T06:15:30.843Z,4.35
2023-05-22T06:17:57.287Z,4.50
2023-05-22T06:20:24.444Z,3.72
2023-05-22T06:22:51.120Z,3.72
2023-05-22T06:25:18.296Z,3.50
2023-05-22T06:27:45.733Z,3.40
2023-05-22T06:30:13.433Z,3.47
2023-05-22T06:32:39.803Z,4.00
2023-05-22T06:35:07.642Z,4.68
2023-05-22T06:37:34.966Z,3.53
2023-05-22T06:40:02.653Z,3.33
2023-05-22T06:42:47.800Z,3.60
2023-05-22T06:45:37.727Z,3.75
2023-05-22T06:48:22.305Z,3.17
2023-05-22T06:51:10.223Z,3.20
2023-05-22T06:53:36.774Z,2.75
2023-05-22T06:56:05.410Z,3.05
2023-05-22T06:59:05.446Z,3.03
2023-05-22T07:01:57.419Z,2.60
2023-05-22T07:04:53.330Z,2.72
2023-05-22T07:07:38.750Z,2.88
2023-05-22T07:10:05.814Z,3.10
2023-05-22T07:12:32.435Z,2.95
2023-05-22T07:14:59.496Z,2.85
2023-05-22T07:17:26.609Z,2.75
2023-05-22T07:19:54.315Z,2.58
2023-05-22T07:22:21.117Z,2.45
2023-05-22T07:24:48.071Z,2.78
2023-05-22T07:27:16.630Z,2.50
2023-05-22T07:29:45.080Z,2.78
2023-05-22T07:32:11.583Z,2.47
2023-05-22T07:34:38.256Z,2.35
2023-05-22T07:37:08.314Z,2.45
2023-05-22T07:39:35.414Z,2.40
2023-05-22T07:42:04.115Z,2.60
2023-05-22T07:44:33.773Z,2.72
2023-05-22T07:47:00.204Z,2.47
2023-05-22T07:49:28.648Z,2.63
2023-05-22T07:51:55.238Z,2.55
2023-05-22T07:54:24.127Z,2.70
2023-05-22T07:56:52.383Z,2.42
2023-05-22T07:59:21.221Z,2.65
2023-05-22T08:01:47.688Z,2.50
2023-05-22T08:04:14.104Z,2.38
2023-05-22T08:06:43.045Z,2.33
2023-05-22T08:09:09.872Z,2.70
2023-05-22T08:11:39.912Z,2.25
2023-05-22T08:14:06.908Z,2.55
2023-05-22T08:16:33.415Z,2.78
2023-05-22T08:18:59.670Z,2.50
2023-05-22T08:21:26.145Z,2.42
2023-05-22T08:23:52.331Z,2.40
2023-05-22T08:26:19.108Z,2.38
2023-05-22T08:28:45.328Z,2.63
2023-05-22T08:31:12.332Z,2.22
2023-05-22T08:33:39.057Z,2.70
2023-05-22T08:36:05.849Z,2.50
2023-05-22T08:38:32.317Z,2.20
2023-05-22T08:40:59.342Z,2.20
2023-05-22T08:43:26.492Z,2.38
2023-05-22T08:46:00.198Z,1.88
2023-05-22T08:48:30.333Z,2.38
2023-05-22T08:50:58.403Z,2.30
2023-05-22T08:53:27.444Z,2.08
2023-05-22T08:55:54.422Z,2.10
2023-05-22T08:58:21.536Z,2.00
2023-05-22T09:00:48.354Z,1.70
2023-05-22T09:03:14.939Z,2.28
2023-05-22T09:05:41.484Z,2.15
2023-05-22T09:08:19.132Z,2.00
2023-05-22T09:10:47.175Z,2.20
2023-05-22T09:13:23.654Z,2.10
2023-05-22T09:15:50.044Z,2.10
2023-05-22T09:18:16.258Z,2.08
2023-05-22T09:20:43.247Z,1.90
2023-05-22T09:23:16.963Z,2.33
2023-05-22T09:25:44.187Z,2.13
2023-05-22T09:28:11.580Z,2.47
2023-05-22T09:30:38.601Z,1.88
2023-05-22T09:33:08.059Z,2.15
2023-05-22T09:35:38.815Z,2.30
2023-05-22T09:38:05.718Z,2.10
2023-05-22T09:40:34.175Z,2.00
2023-05-22T09:43:01.851Z,1.80
2023-05-22T09:45:28.263Z,2.67
2023-05-22T09:47:54.673Z,2.60
2023-05-22T09:50:21.346Z,2.10
2023-05-22T09:52:50.262Z,1.77
2023-05-22T09:55:19.347Z,2.20
2023-05-22T09:57:47.728Z,2.25
2023-05-22T10:00:17.737Z,2.38
2023-05-22T10:03:11.263Z,1.55
2023-05-22T10:05:42.674Z,1.90
2023-05-22T10:08:12.240Z,2.33
2023-05-22T10:10:41.910Z,2.10
2023-05-22T10:13:08.976Z,2.30
2023-05-22T10:15:35.607Z,2.10
2023-05-22T10:18:02.481Z,2.33
2023-05-22T10:20:29.722Z,2.10
2023-05-22T10:22:56.289Z,2.25
2023-05-22T10:25:22.872Z,1.98
2023-05-22T10:27:52.876Z,2.00
2023-05-22T10:30:41.914Z,1.98
2023-05-22T10:33:46.557Z,2.40
2023-05-22T10:36:23.838Z,2.28
2023-05-22T10:38:56.009Z,1.92
2023-05-22T10:41:23.376Z,1.90
2023-05-22T10:43:50.444Z,1.92
2023-05-22T10:46:17.718Z,2.30
2023-05-22T10:48:46.626Z,1.98
2023-05-22T10:51:23.629Z,1.88
2023-05-22T10:53:57.999Z,2.00
2023-05-22T10:56:32.668Z,2.40
2023-05-22T10:59:07.345Z,2.17
2023-05-22T11:01:35.540Z,2.40
2023-05-22T11:04:15.532Z,2.47
2023-05-22T11:06:46.559Z,2.40
2023-05-22T11:09:19.117Z,2.13
2023-05-22T11:11:46.220Z,2.13
2023-05-22T11:14:15.465Z,2.40
2023-05-22T11:16:42.536Z,2.28
2023-05-22T11:19:22.647Z,2.53
2023-05-22T11:21:50.441Z,1.98
2023-05-22T11:24:17.621Z,2.15
2023-05-22T11:26:59.782Z,2.42
2023-05-22T11:29:26.635Z,2.33
2023-05-22T11:31:53.644Z,2.17
2023-05-22T11:34:20.570Z,2.00
2023-05-22T11:36:47.803Z,2.22
2023-05-22T11:39:14.552Z,2.40
2023-05-22T11:41:40.943Z,2.28
2023-05-22T11:44:08.055Z,2.13
2023-05-22T11:46:34.969Z,2.50
2023-05-22T11:49:01.943Z,2.33
2023-05-22T11:51:28.588Z,2.13
2023-05-22T11:53:56.630Z,2.60
2023-05-22T11:56:23.125Z,3.00
2023-05-22T11:58:49.859Z,2.30
2023-05-22T12:01:16.287Z,2.42
2023-05-22T12:03:42.556Z,7.47
2023-05-22T12:06:09.939Z,2.33
2023-05-22T12:08:36.517Z,2.50
2023-05-22T12:11:04.396Z,2.10
2023-05-22T12:13:31.468Z,2.30
2023-05-22T12:16:02.276Z,2.08
2023-05-22T12:18:38.608Z,2.75
2023-05-22T12:21:05.926Z,2.03
2023-05-22T12:23:32.055Z,1.90
2023-05-22T12:26:03.504Z,2.40
2023-05-22T12:28:32.719Z,2.05
2023-05-22T12:30:59.588Z,2.70
2023-05-22T12:33:27.579Z,2.20
2023-05-22T12:35:57.712Z,2.22
2023-05-22T12:38:29.819Z,2.60
2023-05-22T12:40:56.461Z,2.00
2023-05-22T12:43:24.528Z,2.00
2023-05-22T12:45:51.351Z,2.47
2023-05-22T12:48:17.951Z,2.50
2023-05-22T12:50:45.784Z,2.22
2023-05-22T12:53:12.592Z,1.90
2023-05-22T12:55:39.345Z,1.80
2023-05-22T12:58:06.317Z,2.20
2023-05-22T13:00:33.668Z,2.40
2023-05-22T13:03:00.567Z,2.13
2023-05-22T13:05:27.764Z,1.95
2023-05-22T13:07:54.094Z,2.03
2023-05-22T13:10:20.597Z,2.20
2023-05-22T13:12:47.830Z,2.28
2023-05-22T13:15:15.309Z,1.98
2023-05-22T13:17:41.508Z,2.58
2023-05-22T13:20:08.463Z,2.00
2023-05-22T13:22:34.583Z,2.10
2023-05-22T13:25:00.975Z,3.58
2023-05-22T13:27:27.409Z,1.80
2023-05-22T13:29:54.701Z,1.90
2023-05-22T13:32:20.938Z,1.90
2023-05-22T13:34:47.481Z,1.90
2023-05-22T13:37:14.102Z,2.30
2023-05-22T13:39:40.706Z,2.00
2023-05-22T13:42:08.165Z,2.15
2023-05-22T13:44:34.724Z,2.38
2023-05-22T13:47:01.026Z,1.90
2023-05-22T13:49:27.840Z,2.65
2023-05-22T13:51:54.210Z,2.05
2023-05-22T13:54:20.879Z,2.10
2023-05-22T13:56:48.001Z,1.92
2023-05-22T13:59:15.047Z,2.15
2023-05-22T14:01:41.437Z,2.25
2023-05-22T14:04:07.880Z,2.30
2023-05-22T14:06:34.120Z,1.83
2023-05-22T14:09:00.853Z,2.20
2023-05-22T14:11:27.267Z,2.05
2023-05-22T14:13:54.039Z,1.92
2023-05-22T14:16:21.895Z,2.70
2023-05-22T14:18:48.732Z,2.00
2023-05-22T14:21:15.538Z,2.20
2023-05-22T14:23:42.093Z,2.00
2023-05-22T14:26:08.241Z,3.22
2023-05-22T14:28:35.094Z,1.85
2023-05-22T14:31:01.819Z,2.33
2023-05-22T14:33:29.862Z,2.13
2023-05-22T14:35:55.996Z,2.50
2023-05-22T14:38:22.472Z,2.05
2023-05-22T14:40:49.090Z,2.22
2023-05-22T14:43:15.598Z,2.10
2023-05-22T14:45:41.939Z,2.30
2023-05-22T14:48:11.025Z,2.10
2023-05-22T14:50:37.598Z,2.05
2023-05-22T14:53:04.242Z,2.00
2023-05-22T14:55:31.058Z,2.30
2023-05-22T14:57:57.664Z,2.38
2023-05-22T15:00:24.115Z,2.00
2023-05-22T15:02:50.859Z,1.80
2023-05-22T15:05:17.809Z,1.95
2023-05-22T15:07:46.296Z,2.28
2023-05-22T15:10:14.129Z,2.50
2023-05-22T15:12:40.775Z,2.50
2023-05-22T15:15:07.657Z,2.17
2023-05-22T15:17:34.551Z,2.30
2023-05-22T15:20:01.173Z,2.17
2023-05-22T15:22:28.034Z,2.13
2023-05-22T15:25:05.651Z,2.13
2023-05-22T15:27:34.310Z,2.05
2023-05-22T15:30:01.224Z,2.03
2023-05-22T15:32:27.994Z,2.15
2023-05-22T15:34:54.350Z,2.22
2023-05-22T15:37:21.169Z,2.55
2023-05-22T15:39:47.411Z,3.88
2023-05-22T15:42:13.967Z,1.95
2023-05-22T15:44:40.352Z,2.20
2023-05-22T15:47:06.974Z,2.33
2023-05-22T15:49:33.509Z,2.10
2023-05-22T15:52:00.140Z,2.20
2023-05-22T15:54:26.531Z,2.28
2023-05-22T15:56:53.082Z,2.90
2023-05-22T15:59:19.377Z,4.20
2023-05-22T16:01:46.123Z,2.55
2023-05-22T16:04:12.461Z,2.50
2023-05-22T16:06:39.039Z,2.70
2023-05-22T16:09:06.335Z,2.20
2023-05-22T16:11:32.923Z,2.13
2023-05-22T16:13:59.050Z,2.25
2023-05-22T16:16:25.621Z,2.25
2023-05-22T16:18:51.900Z,2.42
2023-05-22T16:21:18.507Z,2.17
2023-05-22T16:23:44.766Z,2.47
2023-05-22T16:26:11.293Z,2.70
2023-05-22T16:28:37.543Z,2.65
2023-05-22T16:31:05.469Z,2.20
2023-05-22T16:33:31.991Z,3.33
2023-05-22T16:35:58.454Z,2.17
2023-05-22T16:38:24.570Z,2.20
2023-05-22T16:40:52.202Z,2.20
2023-05-22T16:43:18.362Z,2.33
2023-05-22T16:45:47.249Z,2.40
2023-05-22T16:48:13.454Z,3.60
2023-05-22T16:50:41.992Z,2.60
2023-05-22T16:53:08.344Z,2.78
2023-05-22T16:55:34.998Z,2.90
2023-05-22T16:58:01.179Z,2.40
2023-05-22T17:00:27.816Z,2.90
2023-05-22T17:02:55.114Z,2.50
2023-05-22T17:05:23.411Z,2.45
2023-05-22T17:07:49.884Z,4.45
2023-05-22T17:10:16.431Z,2.50
2023-05-22T17:12:42.634Z,2.67
2023-05-22T17:15:09.757Z,2.45
2023-05-22T17:17:36.006Z,2.30
2023-05-22T17:20:06.036Z,2.83
2023-05-22T17:22:32.398Z,2.10
2023-05-22T17:24:58.865Z,2.55
2023-05-22T17:27:35.354Z,2.38
2023-05-22T17:30:04.125Z,2.42
2023-05-22T17:32:30.401Z,2.28
2023-05-22T17:34:56.813Z,2.38
2023-05-22T17:37:23.079Z,2.33
2023-05-22T17:39:49.573Z,2.25
2023-05-22T17:42:16.346Z,3.03
2023-05-22T17:44:42.903Z,2.50
2023-05-22T17:47:09.369Z,2.63
2023-05-22T17:49:36.556Z,3.58
2023-05-22T17:52:02.723Z,2.38
2023-05-22T17:54:33.716Z,2.50
2023-05-22T17:57:00.413Z,2.60
2023-05-22T17:59:27.297Z,2.50
2023-05-22T18:01:53.736Z,2.72
2023-05-22T18:04:20.889Z,3.10
2023-05-22T18:06:47.184Z,3.60
2023-05-22T18:09:13.970Z,2.63
2023-05-22T18:11:40.468Z,2.83
2023-05-22T18:14:07.510Z,2.72
2023-05-22T18:16:33.722Z,2.90
2023-05-22T18:19:00.315Z,3.30
2023-05-22T18:21:26.638Z,3.10
2023-05-22T18:23:54.739Z,3.00
2023-05-22T18:26:21.005Z,2.50
2023-05-22T18:28:47.966Z,2.70
2023-05-22T18:31:14.245Z,2.72
2023-05-22T18:33:43.981Z,2.95
2023-05-22T18:36:11.514Z,2.70
2023-05-22T18:38:38.197Z,2.90
2023-05-22T18:41:05.462Z,2.80
2023-05-22T18:43:31.916Z,2.58
2023-05-22T18:45:58.334Z,2.63
2023-05-22T18:48:26.544Z,2.92
2023-05-22T18:50:56.452Z,2.85
2023-05-22T18:53:25.383Z,2.72
2023-05-22T18:55:53.091Z,2.90
2023-05-22T18:58:20.875Z,2.83
2023-05-22T19:00:47.745Z,2.72
2023-05-22T19:03:14.772Z,2.83
2023-05-22T19:05:41.337Z,3.20
2023-05-22T19:08:08.946Z,2.67
2023-05-22T19:10:35.787Z,2.40
2023-05-22T19:13:03.334Z,2.83
2023-05-22T19:15:29.933Z,5.05
2023-05-22T19:17:56.935Z,3.53
2023-05-22T19:20:23.239Z,3.17
2023-05-22T19:22:50.685Z,3.00
2023-05-22T19:25:17.341Z,2.85
2023-05-22T19:27:44.071Z,2.90
2023-05-22T19:30:10.828Z,2.60
2023-05-22T19:32:37.918Z,3.38
2023-05-22T19:35:05.055Z,3.40
2023-05-22T19:37:31.834Z,3.25
2023-05-22T19:39:59.027Z,3.00
2023-05-22T19:42:26.677Z,2.70
2023-05-22T19:44:53.287Z,2.65
2023-05-22T19:47:20.698Z,3.20
2023-05-22T19:49:47.604Z,2.92
2023-05-22T19:52:15.094Z,3.00
2023-05-22T19:54:41.402Z,2.78
2023-05-22T19:57:08.166Z,2.95
2023-05-22T19:59:36.514Z,3.03
2023-05-22T20:02:03.665Z,2.97
2023-05-22T20:04:30.929Z,2.75
2023-05-22T20:07:01.422Z,2.78
2023-05-22T20:09:27.832Z,2.65
2023-05-22T20:11:54.806Z,2.70
2023-05-22T20:14:21.482Z,3.90
2023-05-22T20:16:48.287Z,2.87
2023-05-22T20:19:16.736Z,2.50
2023-05-22T20:21:43.340Z,2.50
2023-05-22T20:24:16.713Z,2.87
2023-05-22T20:30:45.862Z,2.70
2023-05-22T20:33:13.621Z,3.10
2023-05-22T20:35:41.356Z,3.00
2023-05-22T20:38:09.099Z,3.20
2023-05-22T20:40:41.611Z,2.73
2023-05-22T20:43:08.295Z,2.80
2023-05-22T20:45:35.455Z,3.03
2023-05-22T20:48:01.929Z,3.03
2023-05-22T20:50:29.038Z,3.13
2023-05-22T20:52:56.542Z,2.87
2023-05-22T20:55:24.773Z,3.33
2023-05-22T20:57:51.221Z,3.10
2023-05-22T21:00:18.496Z,3.50
2023-05-22T21:02:44.852Z,3.30
2023-05-22T21:05:14.250Z,3.03
2023-05-22T21:07:40.543Z,2.97
2023-05-22T21:10:07.606Z,3.40
2023-05-22T21:12:33.902Z,3.03
2023-05-22T21:15:00.374Z,2.77
2023-05-22T21:17:26.948Z,3.10
2023-05-22T21:19:53.792Z,3.37
2023-05-22T21:22:20.368Z,3.40
2023-05-22T21:24:47.353Z,3.10
2023-05-22T21:27:14.199Z,3.60
2023-05-22T21:29:40.944Z,3.40
2023-05-22T21:32:07.322Z,3.00
2023-05-22T21:34:33.942Z,3.40
2023-05-22T21:37:00.447Z,3.30
2023-05-22T21:39:27.102Z,3.20
2023-05-22T21:41:53.399Z,3.07
2023-05-22T21:44:19.886Z,3.07
2023-05-22T21:46:46.064Z,3.50
2023-05-22T21:49:12.742Z,3.13
2023-05-22T21:51:39.208Z,3.47
2023-05-22T21:54:05.895Z,3.83
2023-05-22T21:56:32.106Z,2.73
2023-05-22T21:58:59.042Z,3.20
2023-05-22T22:01:25.209Z,3.27
2023-05-22T22:03:51.920Z,2.93
2023-05-22T22:06:18.130Z,3.17
2023-05-22T22:08:44.526Z,3.00
2023-05-22T22:11:10.752Z,3.57
2023-05-22T22:13:37.483Z,3.13
2023-05-22T22:16:03.816Z,3.73
2023-05-22T22:18:34.293Z,3.33
2023-05-22T22:21:01.464Z,3.20
2023-05-22T22:23:28.549Z,3.50
2023-05-22T22:25:55.213Z,3.33
2023-05-22T22:28:21.766Z,3.20
2023-05-22T22:30:48.045Z,3.20
2023-05-22T22:33:14.445Z,3.60
2023-05-22T22:35:41.505Z,3.90
2023-05-22T22:38:08.148Z,3.63
2023-05-22T22:40:34.352Z,3.37
2023-05-22T22:43:00.745Z,3.40
2023-05-22T22:45:26.955Z,3.20
2023-05-22T22:47:55.626Z,3.53
2023-05-22T22:50:23.343Z,4.00
2023-05-22T22:52:50.336Z,3.07
2023-05-22T22:55:16.725Z,3.90
2023-05-22T22:57:46.265Z,3.57
2023-05-22T23:00:13.061Z,3.73
2023-05-22T23:02:39.899Z,3.17
2023-05-22T23:05:07.367Z,4.10
2023-05-22T23:07:33.862Z,3.93
2023-05-22T23:09:59.961Z,3.97
2023-05-22T23:12:26.384Z,3.43
2023-05-22T23:14:53.225Z,4.07
2023-05-22T23:17:19.682Z,4.10
2023-05-22T23:19:46.101Z,4.00
2023-05-22T23:22:12.569Z,4.33
2023-05-22T23:24:38.644Z,4.00
2023-05-22T23:27:05.361Z,4.10
2023-05-22T23:29:31.577Z,3.93
2023-05-22T23:31:58.161Z,3.67
2023-05-22T23:34:24.432Z,4.17
2023-05-22T23:36:50.916Z,3.80
2023-05-22T23:39:16.990Z,4.17
2023-05-22T23:41:43.732Z,3.97
2023-05-22T23:44:11.284Z,3.67
2023-05-22T23:46:38.881Z,4.13
2023-05-22T23:49:05.296Z,6.27
2023-05-22T23:51:31.711Z,5.47
2023-05-22T23:53:57.879Z,5.47
2023-05-22T23:56:24.289Z,6.10
2023-05-22T23:58:50.459Z,5.20
